Time;durP1;ratioP1;P1;durP2;ratioP2;P2;SDS_P1;SDS_P2;PMS_P1;PMS_P2;Temp;Humidity;BMP_temperature;BMP_pressure;BME280_temperature;BME280_humidity;BME280_pressure;Samples;Min_cycle;Max_cycle;Signal;HPM_P1;HPM_P2
2022/12/22 03:27:34;;;;;;;42.55;23.27;;;;;;;;;;5049579;28;20053;-65
2022/12/22 03:30:00;;;;;;;46.45;24.02;;;;;;;;;;5050791;28;20487;-65
2022/12/22 03:32:26;;;;;;;45.00;25.17;;;;;;;;;;5050701;28;20076;-65
2022/12/22 03:34:52;;;;;;;47.30;24.77;;;;;;;;;;5049637;28;20053;-65
2022/12/22 03:37:18;;;;;;;58.35;26.85;;;;;;;;;;5050721;28;20037;-65
2022/12/22 03:39:44;;;;;;;48.33;25.58;;;;;;;;;;5050787;28;20033;-65
2022/12/22 03:47:41;;;;;;;53.33;25.20;;;;;;;;;;5050649;28;20045;-65
2022/12/22 03:50:07;;;;;;;49.60;25.02;;;;;;;;;;5049521;28;20029;-65
2022/12/22 03:52:33;;;;;;;51.40;24.77;;;;;;;;;;5050353;28;20091;-65
2022/12/22 03:54:59;;;;;;;49.08;24.45;;;;;;;;;;5050570;28;20049;-65
2022/12/22 03:57:25;;;;;;;55.63;26.30;;;;;;;;;;5049241;28;20465;-65
2022/12/22 03:59:51;;;;;;;44.92;23.25;;;;;;;;;;5050453;28;20056;-65
2022/12/22 04:02:17;;;;;;;40.83;23.13;;;;;;;;;;5050528;28;20041;-65
2022/12/22 04:04:43;;;;;;;43.90;24.65;;;;;;;;;;5050418;28;20037;-65
2022/12/22 04:07:09;;;;;;;41.25;23.35;;;;;;;;;;5048733;28;20124;-65
2022/12/22 04:12:52;;;;;;;39.65;22.42;;;;;;;;;;5060559;28;20116;-65
2022/12/22 04:15:06;;;;;;;45.58;22.60;;;;;;;;;;5090281;28;20055;-65
2022/12/22 04:17:32;;;;;;;39.65;22.02;;;;;;;;;;5089293;28;20090;-65
2022/12/22 04:19:58;;;;;;;41.63;22.38;;;;;;;;;;5090329;28;20059;-65
2022/12/22 04:22:25;;;;;;;41.00;21.85;;;;;;;;;;5088589;28;20039;-65
2022/12/22 04:24:51;;;;;;;51.08;23.85;;;;;;;;;;5090885;28;20032;-65
2022/12/22 04:27:17;;;;;;;50.20;23.50;;;;;;;;;;5071174;28;20044;-65
2022/12/22 04:29:43;;;;;;;40.88;22.52;;;;;;;;;;5068705;28;20127;-65
2022/12/22 04:32:09;;;;;;;37.95;22.40;;;;;;;;;;5069967;28;20124;-65
2022/12/22 04:34:35;;;;;;;38.50;22.73;;;;;;;;;;5069000;28;20052;-65
2022/12/22 04:37:01;;;;;;;37.13;21.95;;;;;;;;;;5069804;28;20036;-65
2022/12/22 04:39:27;;;;;;;39.47;21.25;;;;;;;;;;5070327;28;20033;-65
2022/12/22 04:41:53;;;;;;;37.38;21.23;;;;;;;;;;5070125;28;20094;-65
2022/12/22 04:44:19;;;;;;;38.45;21.80;;;;;;;;;;5068214;28;20037;-65
2022/12/22 04:46:45;;;;;;;36.47;20.50;;;;;;;;;;5068996;28;20064;-65
2022/12/22 04:49:11;;;;;;;34.22;20.42;;;;;;;;;;5068884;28;20048;-65
2022/12/22 04:51:37;;;;;;;44.47;20.60;;;;;;;;;;5069348;28;20043;-66
2022/12/22 04:54:03;;;;;;;40.80;20.35;;;;;;;;;;5068646;28;20116;-65
2022/12/22 04:56:29;;;;;;;42.63;21.95;;;;;;;;;;5068783;28;20045;-65
2022/12/22 04:58:55;;;;;;;40.08;20.90;;;;;;;;;;5068575;28;20094;-65
2022/12/22 05:01:22;;;;;;;39.10;20.17;;;;;;;;;;5073459;28;20482;-65
2022/12/22 05:03:48;;;;;;;43.45;21.08;;;;;;;;;;5073753;28;20047;-65
2022/12/22 05:06:14;;;;;;;34.03;19.70;;;;;;;;;;5072263;28;20044;-65
2022/12/22 05:08:40;;;;;;;33.17;19.92;;;;;;;;;;5073327;28;20085;-65
2022/12/22 05:11:06;;;;;;;36.90;19.48;;;;;;;;;;5083061;28;20040;-65
2022/12/22 05:13:33;;;;;;;33.13;19.58;;;;;;;;;;5092247;28;20131;-65
2022/12/22 05:16:04;;;;;;;39.72;20.85;;;;;;;;;;5092212;28;20169;-65
2022/12/22 05:18:30;;;;;;;39.70;20.55;;;;;;;;;;5093592;28;20060;-65
2022/12/22 05:20:56;;;;;;;41.63;21.27;;;;;;;;;;5092056;28;20125;-65
2022/12/22 05:23:22;;;;;;;42.95;21.10;;;;;;;;;;5091942;28;20050;-65
2022/12/22 05:25:48;;;;;;;36.75;20.02;;;;;;;;;;5085460;28;20048;-65
2022/12/22 05:28:14;;;;;;;45.83;20.80;;;;;;;;;;5073099;28;20059;-65
2022/12/22 05:30:40;;;;;;;43.65;21.02;;;;;;;;;;5071510;28;20064;-65
2022/12/22 05:33:06;;;;;;;45.53;21.60;;;;;;;;;;5072995;28;20041;-65
2022/12/22 05:35:32;;;;;;;37.50;20.35;;;;;;;;;;5073294;28;20455;-65
2022/12/22 05:37:58;;;;;;;43.08;20.80;;;;;;;;;;5072589;28;20522;-65
2022/12/22 05:40:24;;;;;;;43.60;21.38;;;;;;;;;;5073103;28;20037;-65
2022/12/22 05:42:50;;;;;;;55.15;22.83;;;;;;;;;;5071424;28;20102;-65
2022/12/22 05:45:17;;;;;;;46.17;22.58;;;;;;;;;;5072689;28;20044;-65
2022/12/22 05:47:44;;;;;;;52.70;23.15;;;;;;;;;;5073028;28;20325;-65
2022/12/22 05:50:11;;;;;;;62.70;23.95;;;;;;;;;;5072981;28;20413;-65
2022/12/22 05:52:37;;;;;;;53.08;24.30;;;;;;;;;;5071179;28;20036;-65
2022/12/22 05:55:04;;;;;;;61.28;25.52;;;;;;;;;;5072631;28;20044;-65
2022/12/22 05:57:30;;;;;;;71.55;26.05;;;;;;;;;;5073123;28;20410;-65
2022/12/22 05:59:56;;;;;;;68.60;26.15;;;;;;;;;;5070994;28;20465;-65
2022/12/22 06:02:22;;;;;;;70.00;26.50;;;;;;;;;;5072682;28;20078;-65
2022/12/22 06:04:48;;;;;;;67.43;25.70;;;;;;;;;;5058519;28;20039;-65
2022/12/22 06:07:14;;;;;;;68.90;25.63;;;;;;;;;;5064061;28;20051;-65
2022/12/22 06:09:40;;;;;;;72.13;27.20;;;;;;;;;;5062624;28;20052;-66
2022/12/22 06:12:06;;;;;;;63.50;24.75;;;;;;;;;;5076932;28;20364;-65
2022/12/22 06:14:32;;;;;;;69.85;26.13;;;;;;;;;;5051967;28;20600;-65
2022/12/22 06:16:59;;;;;;;66.13;26.05;;;;;;;;;;5070537;28;20048;-66
2022/12/22 06:19:25;;;;;;;70.55;26.25;;;;;;;;;;5071574;28;20505;-63
2022/12/22 06:21:51;;;;;;;61.95;24.17;;;;;;;;;;5071565;28;20182;-65
2022/12/22 06:24:17;;;;;;;62.10;24.52;;;;;;;;;;5071618;28;20121;-65
2022/12/22 06:26:43;;;;;;;58.75;24.60;;;;;;;;;;5071546;28;20402;-66
2022/12/22 06:29:09;;;;;;;61.00;23.42;;;;;;;;;;5063866;28;20033;-63
2022/12/22 06:31:35;;;;;;;65.47;24.65;;;;;;;;;;5054744;28;20040;-61
2022/12/22 06:34:01;;;;;;;61.10;23.95;;;;;;;;;;5057443;28;20051;-62
2022/12/22 06:36:27;;;;;;;64.78;23.27;;;;;;;;;;5059990;28;20040;-62
2022/12/22 06:38:53;;;;;;;65.72;24.40;;;;;;;;;;5070644;28;20044;-62
2022/12/22 06:43:07;;;;;;;61.25;23.35;;;;;;;;;;5070692;28;20037;-62
2022/12/22 06:44:05;;;;;;;60.55;23.15;;;;;;;;;;5070331;28;20763;-60
2022/12/22 06:46:31;;;;;;;58.80;23.50;;;;;;;;;;5066731;28;20056;-61
2022/12/22 06:48:57;;;;;;;64.28;24.08;;;;;;;;;;5063846;28;20407;-61
2022/12/22 06:51:23;;;;;;;61.53;22.50;;;;;;;;;;5070826;28;20032;-61
2022/12/22 06:53:49;;;;;;;56.78;21.77;;;;;;;;;;5069677;28;20048;-61
2022/12/22 06:56:15;;;;;;;50.35;21.15;;;;;;;;;;5071030;28;20094;-62
2022/12/22 06:58:41;;;;;;;53.20;19.90;;;;;;;;;;5069396;28;20055;-62
2022/12/22 07:01:07;;;;;;;58.70;23.20;;;;;;;;;;5070770;28;20119;-63
2022/12/22 07:03:33;;;;;;;52.20;20.70;;;;;;;;;;5070290;28;20090;-62
2022/12/22 07:05:59;;;;;;;50.15;20.42;;;;;;;;;;5068638;28;20048;-63
2022/12/22 07:08:25;;;;;;;43.85;19.10;;;;;;;;;;5070614;28;20040;-62
2022/12/22 07:10:57;;;;;;;49.75;20.48;;;;;;;;;;5083272;28;20047;-63
2022/12/22 07:13:25;;;;;;;43.63;18.52;;;;;;;;;;5064703;28;20049;-62
2022/12/22 07:15:51;;;;;;;43.20;19.27;;;;;;;;;;5067666;28;20749;-62
2022/12/22 07:18:17;;;;;;;42.17;18.15;;;;;;;;;;5049189;28;20052;-62
2022/12/22 07:20:43;;;;;;;49.80;20.35;;;;;;;;;;5059510;28;20127;-61
2022/12/22 07:23:09;;;;;;;42.42;18.85;;;;;;;;;;5070110;28;20036;-62
2022/12/22 07:25:35;;;;;;;42.22;18.05;;;;;;;;;;5070329;28;20584;-62
2022/12/22 07:28:01;;;;;;;59.00;21.73;;;;;;;;;;5065664;28;20487;-61
2022/12/22 07:30:27;;;;;;;49.72;19.75;;;;;;;;;;5050439;28;20044;-63
2022/12/22 07:32:53;;;;;;;52.10;21.48;;;;;;;;;;5061136;28;20044;-63
2022/12/22 07:35:19;;;;;;;54.45;21.98;;;;;;;;;;5069945;28;20047;-63
2022/12/22 07:37:47;;;;;;;56.05;21.30;;;;;;;;;;5068826;28;20060;-63
2022/12/22 07:40:13;;;;;;;59.58;21.70;;;;;;;;;;5065720;28;20499;-62
2022/12/22 07:42:45;;;;;;;50.08;21.00;;;;;;;;;;5055209;28;20811;-62
2022/12/22 07:45:12;;;;;;;52.50;19.95;;;;;;;;;;5068484;28;20048;-62
2022/12/22 07:47:38;;;;;;;55.35;18.90;;;;;;;;;;5074586;28;20055;-62
2022/12/22 07:52:56;;;;;;;57.30;18.90;;;;;;;;;;5068445;28;20044;-64
2022/12/22 07:55:27;;;;;;;47.95;18.65;;;;;;;;;;5069543;28;20091;-63
2022/12/22 07:57:53;;;;;;;50.53;18.17;;;;;;;;;;5062840;28;20554;-63
2022/12/22 08:00:19;;;;;;;46.20;18.30;;;;;;;;;;5069308;28;20478;-63
2022/12/22 08:02:49;;;;;;;43.80;17.30;;;;;;;;;;5068596;28;20049;-62
2022/12/22 08:05:15;;;;;;;46.90;17.13;;;;;;;;;;5068227;28;20046;-63
2022/12/22 08:07:41;;;;;;;44.03;16.80;;;;;;;;;;5069377;28;20919;-64
2022/12/22 08:10:08;;;;;;;47.22;18.85;;;;;;;;;;5069694;28;20404;-63
2022/12/22 08:12:34;;;;;;;59.97;18.27;;;;;;;;;;5068098;28;20032;-64
2022/12/22 08:15:00;;;;;;;49.97;17.27;;;;;;;;;;5067841;28;20123;-62
2022/12/22 08:17:27;;;;;;;38.15;16.08;;;;;;;;;;5068782;28;20047;-63
2022/12/22 08:19:53;;;;;;;42.22;16.80;;;;;;;;;;5067941;28;20526;-62
2022/12/22 08:22:22;;;;;;;43.03;16.75;;;;;;;;;;5065480;28;20044;-62
2022/12/22 08:24:49;;;;;;;44.83;16.65;;;;;;;;;;5069453;28;20086;-62
2022/12/22 08:27:17;;;;;;;36.22;15.20;;;;;;;;;;5066599;28;20044;-62
2022/12/22 08:29:49;;;;;;;45.65;16.83;;;;;;;;;;5068837;28;20091;-64
2022/12/22 08:32:15;;;;;;;92.40;15.65;;;;;;;;;;5056486;28;20111;-64
2022/12/22 08:34:41;;;;;;;63.22;14.40;;;;;;;;;;5064741;28;20688;-63
2022/12/22 08:37:14;;;;;;;48.60;13.05;;;;;;;;;;5063549;28;20040;-62
2022/12/22 08:39:41;;;;;;;29.25;12.88;;;;;;;;;;5053287;28;20045;-62
2022/12/22 08:42:08;;;;;;;30.60;12.55;;;;;;;;;;5070150;28;20123;-62
2022/12/22 08:44:37;;;;;;;58.47;14.75;;;;;;;;;;5058514;28;20036;-62
2022/12/22 08:47:04;;;;;;;36.83;13.75;;;;;;;;;;5072781;28;20063;-61
2022/12/22 08:49:30;;;;;;;41.55;13.52;;;;;;;;;;5072671;28;20028;-61
2022/12/22 08:51:56;;;;;;;47.45;14.27;;;;;;;;;;5071218;28;20048;-62
2022/12/22 08:54:23;;;;;;;90.05;15.88;;;;;;;;;;5064039;28;20044;-61
2022/12/22 08:56:49;;;;;;;75.75;14.98;;;;;;;;;;5072277;28;20089;-63
2022/12/22 08:59:15;;;;;;;38.15;12.52;;;;;;;;;;5064150;28;20052;-63
2022/12/22 09:01:43;;;;;;;36.63;12.40;;;;;;;;;;5067172;28;20059;-65
2022/12/22 09:04:09;;;;;;;44.75;13.02;;;;;;;;;;5071622;28;20372;-65
2022/12/22 09:06:35;;;;;;;31.95;11.98;;;;;;;;;;5072103;28;20039;-64
2022/12/22 09:09:04;;;;;;;52.35;11.75;;;;;;;;;;5069112;28;20037;-65
2022/12/22 09:11:30;;;;;;;56.45;10.80;;;;;;;;;;5077137;28;20043;-65
2022/12/22 09:13:58;;;;;;;49.90;10.68;;;;;;;;;;5071568;28;20040;-65
2022/12/22 09:16:25;;;;;;;30.65;9.57;;;;;;;;;;5069177;28;20731;-65
2022/12/22 09:18:51;;;;;;;51.33;9.25;;;;;;;;;;5063496;28;20064;-64
2022/12/22 09:21:17;;;;;;;67.63;11.18;;;;;;;;;;5062191;28;20185;-62
2022/12/22 09:23:43;;;;;;;43.88;11.10;;;;;;;;;;5059285;28;20037;-64
2022/12/22 09:26:15;;;;;;;56.90;11.57;;;;;;;;;;5068363;28;20043;-65
2022/12/22 09:28:41;;;;;;;27.60;10.45;;;;;;;;;;5072307;28;20386;-64
2022/12/22 09:31:08;;;;;;;29.08;10.20;;;;;;;;;;5069418;28;20693;-64
2022/12/22 09:33:37;;;;;;;35.53;9.50;;;;;;;;;;5061874;28;20048;-65
2022/12/22 09:36:07;;;;;;;24.42;9.82;;;;;;;;;;5067673;28;20051;-65
2022/12/22 09:38:33;;;;;;;22.27;9.73;;;;;;;;;;5063096;28;20055;-64
2022/12/22 09:40:59;;;;;;;27.77;10.80;;;;;;;;;;5071720;28;20040;-64
2022/12/22 09:43:28;;;;;;;34.35;10.07;;;;;;;;;;5071263;28;20528;-64
2022/12/22 09:45:54;;;;;;;28.55;10.13;;;;;;;;;;5071335;28;20035;-64
2022/12/22 09:48:20;;;;;;;30.63;10.38;;;;;;;;;;5071317;28;20036;-64
2022/12/22 09:50:47;;;;;;;34.15;10.70;;;;;;;;;;5067880;28;20052;-64
2022/12/22 09:53:31;;;;;;;37.65;10.45;;;;;;;;;;5071625;28;20041;-64
2022/12/22 09:55:57;;;;;;;25.85;10.98;;;;;;;;;;5064193;28;20048;-64
2022/12/22 09:58:28;;;;;;;30.88;10.57;;;;;;;;;;5071642;28;20514;-62
2022/12/22 10:01:01;;;;;;;21.55;10.75;;;;;;;;;;5056079;28;20119;-63
2022/12/22 10:03:27;;;;;;;26.67;10.45;;;;;;;;;;5070638;28;20045;-62
2022/12/22 10:05:56;;;;;;;38.78;11.40;;;;;;;;;;5066310;28;20040;-62
2022/12/22 10:08:28;;;;;;;33.40;11.45;;;;;;;;;;5061252;28;20086;-65
2022/12/22 10:10:54;;;;;;;26.05;11.52;;;;;;;;;;5063533;28;20033;-65
2022/12/22 10:13:20;;;;;;;27.20;11.18;;;;;;;;;;5071062;28;20594;-65
2022/12/22 10:15:47;;;;;;;29.20;11.00;;;;;;;;;;5065663;28;20038;-65
2022/12/22 10:18:13;;;;;;;26.20;10.13;;;;;;;;;;5064528;28;20743;-64
2022/12/22 10:20:39;;;;;;;26.98;10.13;;;;;;;;;;5059214;28;20048;-63
2022/12/22 10:23:14;;;;;;;24.33;10.23;;;;;;;;;;5070264;28;20037;-63
2022/12/22 10:26:01;;;;;;;25.80;10.73;;;;;;;;;;5068927;28;20049;-63
2022/12/22 10:28:34;;;;;;;26.25;10.70;;;;;;;;;;5070690;28;20115;-64
2022/12/22 10:31:20;;;;;;;28.63;11.73;;;;;;;;;;5070456;28;20375;-66
2022/12/22 10:33:48;;;;;;;24.48;10.25;;;;;;;;;;5069602;28;20048;-64
2022/12/22 10:36:16;;;;;;;24.13;9.68;;;;;;;;;;5070262;28;20391;-63
2022/12/22 10:38:56;;;;;;;23.65;10.30;;;;;;;;;;5069401;28;20051;-64
2022/12/22 10:41:24;;;;;;;23.08;8.93;;;;;;;;;;5066909;28;20044;-64
2022/12/22 10:43:52;;;;;;;23.13;9.57;;;;;;;;;;5059010;28;20140;-64
2022/12/22 10:46:19;;;;;;;24.67;10.18;;;;;;;;;;5066639;28;20042;-64
2022/12/22 10:48:45;;;;;;;23.60;9.35;;;;;;;;;;5070187;28;20051;-65
2022/12/22 10:51:13;;;;;;;22.95;9.52;;;;;;;;;;5068011;28;20067;-64
2022/12/22 10:53:41;;;;;;;21.40;9.68;;;;;;;;;;5059544;28;20045;-63
2022/12/22 10:56:07;;;;;;;23.10;9.43;;;;;;;;;;5067960;28;20062;-62
2022/12/22 10:59:06;;;;;;;22.10;9.00;;;;;;;;;;5068316;28;20052;-63
2022/12/22 11:01:33;;;;;;;18.33;8.40;;;;;;;;;;5029905;28;20053;-62
2022/12/22 11:04:15;;;;;;;24.27;9.43;;;;;;;;;;5063944;28;20037;-63
2022/12/22 11:06:44;;;;;;;21.65;9.20;;;;;;;;;;5069508;28;20032;-63
2022/12/22 11:09:13;;;;;;;23.25;9.75;;;;;;;;;;5064326;28;20047;-63
2022/12/22 11:11:42;;;;;;;19.15;8.88;;;;;;;;;;5056144;28;20039;-65
2022/12/22 11:14:24;;;;;;;19.88;8.52;;;;;;;;;;5063521;28;20052;-63
2022/12/22 11:16:50;;;;;;;;;;;;;;;;;;5069878;28;20048;-64
2022/12/22 11:19:28;;;;;;;22.85;9.02;;;;;;;;;;5055425;28;19974;-63
2022/12/22 11:21:54;;;;;;;17.40;9.10;;;;;;;;;;5053020;28;20028;-63
2022/12/22 11:24:28;;;;;;;18.30;8.60;;;;;;;;;;5062462;28;20509;-65
2022/12/22 11:27:00;;;;;;;21.60;8.60;;;;;;;;;;5061393;28;20501;-65
2022/12/22 11:29:42;;;;;;;21.70;9.18;;;;;;;;;;5069845;28;20040;-64
2022/12/22 11:32:11;;;;;;;19.20;8.13;;;;;;;;;;5067602;28;20055;-62
2022/12/22 11:34:42;;;;;;;16.60;7.75;;;;;;;;;;5069521;28;20059;-62
2022/12/22 11:37:11;;;;;;;17.08;8.60;;;;;;;;;;5069471;28;20032;-62
2022/12/22 11:40:04;;;;;;;25.02;9.43;;;;;;;;;;5067884;28;20044;-63
2022/12/22 11:42:30;;;;;;;19.90;8.95;;;;;;;;;;5060413;28;20048;-62
2022/12/22 11:45:11;;;;;;;18.02;8.38;;;;;;;;;;5066442;28;20048;-61
2022/12/22 11:47:52;;;;;;;19.90;8.82;;;;;;;;;;5060608;28;20072;-62
2022/12/22 11:50:27;;;;;;;16.33;8.13;;;;;;;;;;5063765;28;20040;-62
2022/12/22 11:53:14;;;;;;;21.60;8.73;;;;;;;;;;5067580;28;20044;-62
2022/12/22 11:56:01;;;;;;;22.33;8.48;;;;;;;;;;5064236;28;20411;-62
2022/12/22 11:58:34;;;;;;;18.38;9.00;;;;;;;;;;5020169;28;20101;-62
2022/12/22 12:01:19;;;;;;;16.95;8.00;;;;;;;;;;5069366;28;20036;-62
2022/12/22 12:03:45;;;;;;;19.25;8.13;;;;;;;;;;5068742;28;20072;-65
2022/12/22 12:06:20;;;;;;;17.33;7.22;;;;;;;;;;5061116;28;20041;-63
2022/12/22 12:08:49;;;;;;;21.45;8.90;;;;;;;;;;5068246;28;20086;-63
2022/12/22 12:11:35;;;;;;;16.02;7.88;;;;;;;;;;5068786;28;20040;-64
2022/12/22 12:14:15;;;;;;;17.27;7.45;;;;;;;;;;5069107;28;20063;-63
2022/12/22 12:16:58;;;;;;;17.95;7.22;;;;;;;;;;5069626;28;20037;-63
2022/12/22 12:19:24;;;;;;;16.65;7.82;;;;;;;;;;5069352;28;20092;-63
2022/12/22 12:21:52;;;;;;;21.73;8.20;;;;;;;;;;5064187;28;20045;-64
2022/12/22 12:24:30;;;;;;;16.65;7.78;;;;;;;;;;5069124;28;20488;-64
2022/12/22 12:27:17;;;;;;;18.83;6.85;;;;;;;;;;5062208;28;20084;-64
2022/12/22 12:29:58;;;;;;;17.55;8.10;;;;;;;;;;5062081;28;20068;-63
2022/12/22 12:32:27;;;;;;;21.65;7.97;;;;;;;;;;5060854;28;20056;-62
2022/12/22 12:34:57;;;;;;;21.10;8.00;;;;;;;;;;5067374;28;20581;-62
2022/12/22 12:37:33;;;;;;;24.90;8.00;;;;;;;;;;5069529;28;20047;-62
2022/12/22 12:40:02;;;;;;;17.77;8.20;;;;;;;;;;5069216;28;20064;-63
2022/12/22 12:42:28;;;;;;;18.05;8.45;;;;;;;;;;5056801;28;20075;-63
2022/12/22 12:44:55;;;;;;;18.10;7.35;;;;;;;;;;5068840;28;20439;-62
2022/12/22 12:47:23;;;;;;;17.13;7.35;;;;;;;;;;5065309;28;20039;-63
2022/12/22 12:50:02;;;;;;;18.80;7.78;;;;;;;;;;5071525;28;20133;-65
2022/12/22 12:52:55;;;;;;;19.73;7.97;;;;;;;;;;5067199;28;20041;-64
2022/12/22 12:55:30;;;;;;;20.55;7.68;;;;;;;;;;5065043;28;20052;-62
2022/12/22 12:57:57;;;;;;;19.98;8.10;;;;;;;;;;5065223;28;20046;-61
2022/12/22 13:00:32;;;;;;;25.00;8.07;;;;;;;;;;5062548;28;20028;-61
2022/12/22 13:03:18;;;;;;;18.85;8.30;;;;;;;;;;5061979;28;20041;-63
2022/12/22 13:05:52;;;;;;;27.20;9.35;;;;;;;;;;5057258;28;20065;-62
2022/12/22 13:08:19;;;;;;;23.92;8.65;;;;;;;;;;5065832;28;20439;-62
2022/12/22 13:10:54;;;;;;;21.42;8.45;;;;;;;;;;5063344;28;20041;-65
2022/12/22 13:13:23;;;;;;;20.63;8.98;;;;;;;;;;5064340;28;20120;-64
2022/12/22 13:15:58;;;;;;;19.45;7.60;;;;;;;;;;5062319;28;20032;-64
2022/12/22 13:18:25;;;;;;;22.15;7.95;;;;;;;;;;5067332;28;20057;-64
2022/12/22 13:20:54;;;;;;;20.27;8.05;;;;;;;;;;5070059;28;20045;-62
2022/12/22 13:23:20;;;;;;;22.02;7.30;;;;;;;;;;5071862;28;20040;-61
2022/12/22 13:26:07;;;;;;;17.60;7.30;;;;;;;;;;5072366;28;20177;-62
2022/12/22 13:28:35;;;;;;;15.88;7.22;;;;;;;;;;5072066;28;20044;-62
2022/12/22 13:31:18;;;;;;;17.33;7.35;;;;;;;;;;5063318;28;20085;-63
2022/12/22 13:33:44;;;;;;;19.95;7.18;;;;;;;;;;5069976;28;20115;-64
2022/12/22 13:36:21;;;;;;;24.23;7.28;;;;;;;;;;5061280;28;20045;-63
2022/12/22 13:38:57;;;;;;;19.67;6.90;;;;;;;;;;5063915;28;20124;-62
2022/12/22 13:41:23;;;;;;;20.88;7.38;;;;;;;;;;5064019;28;20401;-62
2022/12/22 13:43:54;;;;;;;19.10;6.97;;;;;;;;;;5061606;28;20082;-62
2022/12/22 13:46:20;;;;;;;20.30;7.13;;;;;;;;;;5061417;28;20487;-62
2022/12/22 13:48:48;;;;;;;14.95;6.18;;;;;;;;;;5071223;28;20044;-64
2022/12/22 13:51:28;;;;;;;16.10;6.85;;;;;;;;;;5071424;28;20773;-62
2022/12/22 13:53:55;;;;;;;11.50;5.45;;;;;;;;;;5064354;28;20095;-63
2022/12/22 13:56:23;;;;;;;14.40;6.25;;;;;;;;;;5069596;28;20048;-63
2022/12/22 13:58:57;;;;;;;14.35;5.78;;;;;;;;;;5071065;28;20048;-63
2022/12/22 14:01:23;;;;;;;17.38;6.35;;;;;;;;;;5071296;28;20840;-63
2022/12/22 14:04:12;;;;;;;16.55;5.78;;;;;;;;;;5069611;28;20109;-62
2022/12/22 14:06:39;;;;;;;16.17;5.50;;;;;;;;;;5058254;28;20123;-62
2022/12/22 14:09:12;;;;;;;18.63;5.65;;;;;;;;;;5055101;28;20043;-62
2022/12/22 14:11:39;;;;;;;13.38;5.07;;;;;;;;;;5072451;28;20494;-64
2022/12/22 14:14:08;;;;;;;13.82;5.63;;;;;;;;;;5063552;28;20036;-63
2022/12/22 14:16:34;;;;;;;16.80;6.07;;;;;;;;;;5066668;28;20084;-63
2022/12/22 14:19:01;;;;;;;15.75;5.47;;;;;;;;;;5066785;28;20064;-64
2022/12/22 14:21:27;;;;;;;20.63;6.05;;;;;;;;;;5070697;28;20056;-64
2022/12/22 14:23:53;;;;;;;17.45;5.20;;;;;;;;;;5070096;28;20055;-62
2022/12/22 14:26:22;;;;;;;13.40;5.43;;;;;;;;;;5062238;28;20029;-60
2022/12/22 14:28:52;;;;;;;16.98;5.53;;;;;;;;;;5071467;28;20040;-61
2022/12/22 14:31:18;;;;;;;12.90;5.18;;;;;;;;;;5070073;28;20047;-61
2022/12/22 14:33:55;;;;;;;21.33;6.03;;;;;;;;;;5067027;28;20048;-61
2022/12/22 14:36:23;;;;;;;13.77;5.75;;;;;;;;;;5070820;28;20040;-61
2022/12/22 14:38:50;;;;;;;18.20;6.35;;;;;;;;;;5071321;28;20040;-60
2022/12/22 14:44:04;;;;;;;13.27;5.30;;;;;;;;;;5066003;28;20654;-61
2022/12/22 14:46:30;;;;;;;13.63;5.50;;;;;;;;;;5071370;28;20120;-61
2022/12/22 14:48:58;;;;;;;16.58;5.35;;;;;;;;;;5071099;28;20052;-61
2022/12/22 14:51:24;;;;;;;14.00;5.80;;;;;;;;;;5070711;28;20043;-60
2022/12/22 14:53:53;;;;;;;14.77;5.50;;;;;;;;;;5071357;28;20045;-60
2022/12/22 14:56:19;;;;;;;15.40;6.15;;;;;;;;;;5070982;28;20094;-60
2022/12/22 14:58:46;;;;;;;14.77;6.38;;;;;;;;;;5070529;28;20402;-60
2022/12/22 15:01:15;;;;;;;19.92;6.22;;;;;;;;;;5058824;28;20537;-60
2022/12/22 15:03:41;;;;;;;15.93;5.88;;;;;;;;;;5059164;28;20494;-60
2022/12/22 15:06:23;;;;;;;9.90;5.03;;;;;;;;;;5060000;28;20033;-61
2022/12/22 15:08:52;;;;;;;13.13;6.03;;;;;;;;;;5062049;28;20068;-61
2022/12/22 15:11:18;;;;;;;13.30;5.63;;;;;;;;;;5068720;28;20068;-60
2022/12/22 15:13:46;;;;;;;13.98;5.78;;;;;;;;;;5054867;28;20162;-59
2022/12/22 15:16:14;;;;;;;14.55;5.68;;;;;;;;;;5064617;28;20060;-59
2022/12/22 15:18:41;;;;;;;15.30;6.43;;;;;;;;;;5061025;28;20064;-59
2022/12/22 15:21:09;;;;;;;14.43;6.28;;;;;;;;;;5061476;28;20394;-59
2022/12/22 15:23:35;;;;;;;15.70;6.45;;;;;;;;;;5064505;28;20041;-59
2022/12/22 15:26:01;;;;;;;14.15;6.50;;;;;;;;;;5062290;28;20519;-61
2022/12/22 15:28:27;;;;;;;15.57;6.57;;;;;;;;;;5067127;28;20079;-61
2022/12/22 15:30:53;;;;;;;14.82;6.15;;;;;;;;;;5070401;28;20044;-61
2022/12/22 15:33:19;;;;;;;15.80;6.80;;;;;;;;;;5070905;28;20451;-62
2022/12/22 15:35:46;;;;;;;14.40;6.45;;;;;;;;;;5069138;28;20127;-61
2022/12/22 15:38:13;;;;;;;11.25;6.07;;;;;;;;;;5071070;28;20037;-61
2022/12/22 15:40:39;;;;;;;13.32;6.07;;;;;;;;;;5070838;28;20044;-61
2022/12/22 15:43:05;;;;;;;15.55;6.50;;;;;;;;;;5069972;28;20115;-61
2022/12/22 15:45:32;;;;;;;13.85;6.45;;;;;;;;;;5070474;28;20487;-61
2022/12/22 15:47:58;;;;;;;13.13;6.60;;;;;;;;;;5070479;28;20040;-61
2022/12/22 15:50:30;;;;;;;11.10;6.22;;;;;;;;;;5070350;28;20550;-63
2022/12/22 15:52:57;;;;;;;13.95;6.40;;;;;;;;;;5070595;28;20044;-62
2022/12/22 15:55:24;;;;;;;10.43;6.50;;;;;;;;;;5070633;28;20086;-64
2022/12/22 15:57:52;;;;;;;12.80;6.57;;;;;;;;;;5070201;28;20133;-64
2022/12/22 16:00:19;;;;;;;17.10;7.43;;;;;;;;;;5070779;28;20044;-64
2022/12/22 16:02:45;;;;;;;19.92;8.68;;;;;;;;;;5070272;28;20098;-64
2022/12/22 16:05:11;;;;;;;14.88;8.07;;;;;;;;;;5070018;28;20076;-64
2022/12/22 16:07:39;;;;;;;20.92;9.15;;;;;;;;;;5070759;28;20043;-64
2022/12/22 16:10:06;;;;;;;18.92;9.40;;;;;;;;;;5076513;28;20028;-64
2022/12/22 16:12:33;;;;;;;20.67;9.40;;;;;;;;;;5090034;28;20048;-64
2022/12/22 16:15:00;;;;;;;16.95;8.75;;;;;;;;;;5090667;28;20498;-64
2022/12/22 16:17:27;;;;;;;18.30;9.95;;;;;;;;;;5090849;28;20044;-64
2022/12/22 16:19:53;;;;;;;16.35;8.90;;;;;;;;;;5089925;28;20060;-64
2022/12/22 16:22:21;;;;;;;15.93;9.77;;;;;;;;;;5090650;28;20047;-64
2022/12/22 16:24:48;;;;;;;16.25;9.88;;;;;;;;;;5090604;28;20127;-64
2022/12/22 16:27:14;;;;;;;22.30;11.10;;;;;;;;;;5071314;28;20055;-64
2022/12/22 16:29:42;;;;;;;16.35;10.18;;;;;;;;;;5068923;28;20032;-64
2022/12/22 16:32:16;;;;;;;18.98;10.93;;;;;;;;;;5070012;28;20089;-64
2022/12/22 16:34:42;;;;;;;16.40;11.18;;;;;;;;;;5069804;28;20442;-64
2022/12/22 16:37:08;;;;;;;21.95;12.93;;;;;;;;;;5070384;28;20037;-64
2022/12/22 16:39:35;;;;;;;25.73;12.05;;;;;;;;;;5070424;28;20064;-64
2022/12/22 16:42:01;;;;;;;23.33;12.35;;;;;;;;;;5069511;28;20078;-64
2022/12/22 16:44:27;;;;;;;27.77;13.52;;;;;;;;;;5070176;28;20498;-64
2022/12/22 16:46:53;;;;;;;23.45;13.57;;;;;;;;;;5070280;28;20367;-64
2022/12/22 16:49:20;;;;;;;22.77;13.65;;;;;;;;;;5070118;28;20032;-64
2022/12/22 16:51:47;;;;;;;21.25;12.65;;;;;;;;;;5070153;28;20885;-64
2022/12/22 16:54:14;;;;;;;25.35;14.70;;;;;;;;;;5070343;28;20579;-64
2022/12/22 16:56:41;;;;;;;28.25;15.23;;;;;;;;;;5072119;28;20395;-64
2022/12/22 16:59:08;;;;;;;33.15;16.85;;;;;;;;;;5074194;28;20047;-64
2022/12/22 17:01:54;;;;;;;34.53;15.95;;;;;;;;;;5073492;28;20083;-64
2022/12/22 17:04:25;;;;;;;25.83;13.68;;;;;;;;;;5073407;28;20114;-64
2022/12/22 17:06:53;;;;;;;26.42;15.52;;;;;;;;;;5073924;28;20033;-64
2022/12/22 17:09:27;;;;;;;28.15;15.15;;;;;;;;;;5066909;28;20036;-64
2022/12/22 17:11:54;;;;;;;25.58;14.55;;;;;;;;;;5053071;28;20037;-64
2022/12/22 17:14:29;;;;;;;30.73;15.43;;;;;;;;;;5053718;28;20446;-64
2022/12/22 17:16:55;;;;;;;28.15;15.73;;;;;;;;;;5053693;28;20041;-64
2022/12/22 17:19:21;;;;;;;27.23;15.25;;;;;;;;;;5052988;28;20600;-64
2022/12/22 17:21:47;;;;;;;28.52;15.85;;;;;;;;;;5053452;28;20123;-64
2022/12/22 17:24:14;;;;;;;29.50;16.13;;;;;;;;;;5053624;28;20049;-64
2022/12/22 17:26:40;;;;;;;29.40;16.00;;;;;;;;;;5067000;28;20029;-64
2022/12/22 17:29:09;;;;;;;28.95;16.05;;;;;;;;;;5073410;28;20480;-64
2022/12/22 17:31:35;;;;;;;28.17;15.65;;;;;;;;;;5073241;28;20054;-64
2022/12/22 17:34:02;;;;;;;34.35;16.65;;;;;;;;;;5072983;28;20036;-64
2022/12/22 17:36:38;;;;;;;31.77;16.60;;;;;;;;;;5073262;28;20040;-64
2022/12/22 17:39:04;;;;;;;32.35;17.52;;;;;;;;;;5073191;28;20087;-64
2022/12/22 17:41:30;;;;;;;34.03;17.38;;;;;;;;;;5072930;28;20139;-64
2022/12/22 17:43:56;;;;;;;32.53;16.50;;;;;;;;;;5073195;28;20153;-64
2022/12/22 17:46:22;;;;;;;30.20;16.98;;;;;;;;;;5073160;28;20418;-64
2022/12/22 17:48:48;;;;;;;36.75;18.30;;;;;;;;;;5072507;28;20050;-64
2022/12/22 17:51:32;;;;;;;32.95;18.02;;;;;;;;;;5072886;28;20040;-64
2022/12/22 17:53:59;;;;;;;36.15;17.77;;;;;;;;;;5072953;28;20387;-64
2022/12/22 17:56:26;;;;;;;37.25;18.35;;;;;;;;;;5054320;28;20444;-64
2022/12/22 17:58:52;;;;;;;40.35;19.48;;;;;;;;;;5073109;28;20047;-64
2022/12/22 18:01:26;;;;;;;37.22;19.13;;;;;;;;;;5072553;28;20041;-64
2022/12/22 18:03:53;;;;;;;36.45;18.30;;;;;;;;;;5072422;28;20052;-64
2022/12/22 18:06:21;;;;;;;40.10;18.55;;;;;;;;;;5072448;28;20036;-64
2022/12/22 18:08:47;;;;;;;36.55;18.08;;;;;;;;;;5070761;28;20036;-64
2022/12/22 18:11:13;;;;;;;34.08;18.25;;;;;;;;;;5082920;28;20062;-64
2022/12/22 18:13:40;;;;;;;36.42;17.88;;;;;;;;;;5092872;28;20122;-64